sensor_id;sensor_type;location;lat;lon;timestamp;P1;durP1;ratioP1;P2;durP2;ratioP2
10565;SDS011;5331;48.148;16.326;2023-04-08T00:00:45;32.73;;;24.07;;
10565;SDS011;5331;48.148;16.326;2023-04-08T00:03:13;32.60;;;24.07;;
10565;SDS011;5331;48.148;16.326;2023-04-08T00:05:40;32.33;;;23.93;;
10565;SDS011;5331;48.148;16.326;2023-04-08T00:08:07;32.73;;;24.33;;
10565;SDS011;5331;48.148;16.326;2023-04-08T00:10:34;29.50;;;22.97;;
10565;SDS011;5331;48.148;16.326;2023-04-08T00:13:01;29.77;;;22.67;;
10565;SDS011;5331;48.148;16.326;2023-04-08T00:15:27;29.40;;;22.47;;
10565;SDS011;5331;48.148;16.326;2023-04-08T00:17:54;33.07;;;23.27;;
10565;SDS011;5331;48.148;16.326;2023-04-08T00:20:23;26.50;;;19.00;;
10565;SDS011;5331;48.148;16.326;2023-04-08T00:22:50;24.50;;;17.47;;
10565;SDS011;5331;48.148;16.326;2023-04-08T00:25:17;23.00;;;16.10;;
10565;SDS011;5331;48.148;16.326;2023-04-08T00:27:44;23.13;;;16.73;;
10565;SDS011;5331;48.148;16.326;2023-04-08T00:30:10;25.37;;;18.10;;
10565;SDS011;5331;48.148;16.326;2023-04-08T00:32:37;21.77;;;15.37;;
10565;SDS011;5331;48.148;16.326;2023-04-08T00:35:04;19.17;;;15.17;;
10565;SDS011;5331;48.148;16.326;2023-04-08T00:37:33;20.03;;;14.90;;
10565;SDS011;5331;48.148;16.326;2023-04-08T00:40:00;20.07;;;15.43;;
10565;SDS011;5331;48.148;16.326;2023-04-08T00:42:28;18.47;;;14.30;;
10565;SDS011;5331;48.148;16.326;2023-04-08T00:44:55;19.77;;;14.23;;
10565;SDS011;5331;48.148;16.326;2023-04-08T00:47:22;18.67;;;13.30;;
10565;SDS011;5331;48.148;16.326;2023-04-08T00:49:50;15.87;;;12.33;;
10565;SDS011;5331;48.148;16.326;2023-04-08T00:52:17;13.00;;;10.70;;
10565;SDS011;5331;48.148;16.326;2023-04-08T00:54:45;11.10;;;9.17;;
10565;SDS011;5331;48.148;16.326;2023-04-08T00:57:12;10.50;;;9.03;;
10565;SDS011;5331;48.148;16.326;2023-04-08T00:59:39;9.90;;;8.87;;
10565;SDS011;5331;48.148;16.326;2023-04-08T01:02:10;10.20;;;8.63;;
10565;SDS011;5331;48.148;16.326;2023-04-08T01:04:43;9.27;;;8.30;;
10565;SDS011;5331;48.148;16.326;2023-04-08T01:07:16;9.20;;;8.23;;
10565;SDS011;5331;48.148;16.326;2023-04-08T01:09:50;9.90;;;8.13;;
10565;SDS011;5331;48.148;16.326;2023-04-08T01:12:20;9.73;;;8.43;;
10565;SDS011;5331;48.148;16.326;2023-04-08T01:14:51;8.90;;;7.77;;
10565;SDS011;5331;48.148;16.326;2023-04-08T01:17:24;9.60;;;8.60;;
10565;SDS011;5331;48.148;16.326;2023-04-08T01:19:51;9.40;;;8.37;;
10565;SDS011;5331;48.148;16.326;2023-04-08T01:22:22;10.60;;;9.37;;
10565;SDS011;5331;48.148;16.326;2023-04-08T01:24:56;9.77;;;8.27;;
10565;SDS011;5331;48.148;16.326;2023-04-08T01:27:29;8.90;;;8.00;;
10565;SDS011;5331;48.148;16.326;2023-04-08T01:29:58;9.17;;;8.27;;
10565;SDS011;5331;48.148;16.326;2023-04-08T01:32:26;10.13;;;9.07;;
10565;SDS011;5331;48.148;16.326;2023-04-08T01:34:54;9.40;;;8.50;;
10565;SDS011;5331;48.148;16.326;2023-04-08T01:37:23;9.60;;;8.60;;
10565;SDS011;5331;48.148;16.326;2023-04-08T01:39:51;8.83;;;7.90;;
10565;SDS011;5331;48.148;16.326;2023-04-08T01:42:20;8.83;;;7.93;;
10565;SDS011;5331;48.148;16.326;2023-04-08T01:44:51;10.00;;;8.27;;
10565;SDS011;5331;48.148;16.326;2023-04-08T01:47:20;9.20;;;8.30;;
10565;SDS011;5331;48.148;16.326;2023-04-08T01:49:48;9.20;;;8.30;;
10565;SDS011;5331;48.148;16.326;2023-04-08T01:52:16;9.20;;;8.30;;
10565;SDS011;5331;48.148;16.326;2023-04-08T01:54:45;8.93;;;8.00;;
10565;SDS011;5331;48.148;16.326;2023-04-08T01:57:13;9.60;;;8.60;;
10565;SDS011;5331;48.148;16.326;2023-04-08T01:59:44;9.67;;;8.13;;
10565;SDS011;5331;48.148;16.326;2023-04-08T02:02:17;8.67;;;7.13;;
10565;SDS011;5331;48.148;16.326;2023-04-08T02:04:45;7.57;;;6.77;;
10565;SDS011;5331;48.148;16.326;2023-04-08T02:07:12;6.97;;;6.27;;
10565;SDS011;5331;48.148;16.326;2023-04-08T02:09:40;6.30;;;5.70;;
10565;SDS011;5331;48.148;16.326;2023-04-08T02:12:07;6.60;;;5.90;;
10565;SDS011;5331;48.148;16.326;2023-04-08T02:14:34;5.30;;;4.80;;
10565;SDS011;5331;48.148;16.326;2023-04-08T02:17:04;5.23;;;4.73;;
10565;SDS011;5331;48.148;16.326;2023-04-08T02:19:39;5.80;;;5.30;;
10565;SDS011;5331;48.148;16.326;2023-04-08T02:22:18;5.30;;;4.80;;
10565;SDS011;5331;48.148;16.326;2023-04-08T02:24:54;4.80;;;4.40;;
10565;SDS011;5331;48.148;16.326;2023-04-08T02:27:23;5.30;;;4.37;;
10565;SDS011;5331;48.148;16.326;2023-04-08T02:29:52;5.00;;;4.60;;
10565;SDS011;5331;48.148;16.326;2023-04-08T02:32:20;4.80;;;4.40;;
10565;SDS011;5331;48.148;16.326;2023-04-08T02:34:50;4.77;;;4.37;;
10565;SDS011;5331;48.148;16.326;2023-04-08T02:37:18;6.03;;;5.47;;
10565;SDS011;5331;48.148;16.326;2023-04-08T02:39:45;5.50;;;5.00;;
10565;SDS011;5331;48.148;16.326;2023-04-08T02:42:12;5.03;;;4.53;;
10565;SDS011;5331;48.148;16.326;2023-04-08T02:44:39;4.90;;;4.40;;
10565;SDS011;5331;48.148;16.326;2023-04-08T02:47:06;4.47;;;4.07;;
10565;SDS011;5331;48.148;16.326;2023-04-08T02:49:33;4.27;;;3.97;;
10565;SDS011;5331;48.148;16.326;2023-04-08T02:52:01;3.90;;;3.60;;
10565;SDS011;5331;48.148;16.326;2023-04-08T02:54:28;4.00;;;3.60;;
10565;SDS011;5331;48.148;16.326;2023-04-08T02:56:55;4.00;;;3.70;;
10565;SDS011;5331;48.148;16.326;2023-04-08T02:59:22;4.53;;;4.13;;
10565;SDS011;5331;48.148;16.326;2023-04-08T03:01:49;4.83;;;4.43;;
10565;SDS011;5331;48.148;16.326;2023-04-08T03:04:16;4.83;;;4.43;;
10565;SDS011;5331;48.148;16.326;2023-04-08T03:06:43;4.67;;;4.27;;
10565;SDS011;5331;48.148;16.326;2023-04-08T03:09:11;4.70;;;4.30;;
10565;SDS011;5331;48.148;16.326;2023-04-08T03:11:38;4.90;;;4.50;;
10565;SDS011;5331;48.148;16.326;2023-04-08T03:14:06;4.60;;;4.20;;
10565;SDS011;5331;48.148;16.326;2023-04-08T03:16:33;4.60;;;4.20;;
10565;SDS011;5331;48.148;16.326;2023-04-08T03:19:00;3.50;;;3.30;;
10565;SDS011;5331;48.148;16.326;2023-04-08T03:21:27;4.00;;;3.70;;
10565;SDS011;5331;48.148;16.326;2023-04-08T03:23:55;4.10;;;3.80;;
10565;SDS011;5331;48.148;16.326;2023-04-08T03:26:23;4.20;;;3.90;;
10565;SDS011;5331;48.148;16.326;2023-04-08T03:28:51;4.17;;;3.87;;
10565;SDS011;5331;48.148;16.326;2023-04-08T03:31:18;3.93;;;3.63;;
10565;SDS011;5331;48.148;16.326;2023-04-08T03:33:45;3.87;;;3.57;;
10565;SDS011;5331;48.148;16.326;2023-04-08T03:36:12;4.23;;;3.93;;
10565;SDS011;5331;48.148;16.326;2023-04-08T03:38:39;3.97;;;3.67;;
10565;SDS011;5331;48.148;16.326;2023-04-08T03:41:05;3.80;;;3.50;;
10565;SDS011;5331;48.148;16.326;2023-04-08T03:43:34;3.70;;;3.40;;
10565;SDS011;5331;48.148;16.326;2023-04-08T03:46:01;3.60;;;3.40;;
10565;SDS011;5331;48.148;16.326;2023-04-08T03:48:28;4.03;;;3.73;;
10565;SDS011;5331;48.148;16.326;2023-04-08T03:50:54;4.30;;;3.90;;
10565;SDS011;5331;48.148;16.326;2023-04-08T03:53:21;3.70;;;3.40;;
10565;SDS011;5331;48.148;16.326;2023-04-08T03:55:48;3.93;;;3.63;;
10565;SDS011;5331;48.148;16.326;2023-04-08T03:58:15;4.10;;;3.80;;
10565;SDS011;5331;48.148;16.326;2023-04-08T04:00:44;4.00;;;3.70;;
10565;SDS011;5331;48.148;16.326;2023-04-08T04:03:10;4.20;;;3.90;;
10565;SDS011;5331;48.148;16.326;2023-04-08T04:05:37;4.40;;;4.10;;
10565;SDS011;5331;48.148;16.326;2023-04-08T04:08:04;4.30;;;4.00;;
10565;SDS011;5331;48.148;16.326;2023-04-08T04:10:33;4.07;;;3.73;;
10565;SDS011;5331;48.148;16.326;2023-04-08T04:13:00;4.07;;;3.77;;
10565;SDS011;5331;48.148;16.326;2023-04-08T04:15:27;4.30;;;4.00;;
10565;SDS011;5331;48.148;16.326;2023-04-08T04:17:55;4.10;;;3.80;;
10565;SDS011;5331;48.148;16.326;2023-04-08T04:20:22;4.47;;;4.07;;
10565;SDS011;5331;48.148;16.326;2023-04-08T04:22:50;4.30;;;4.00;;
10565;SDS011;5331;48.148;16.326;2023-04-08T04:25:17;4.17;;;3.87;;
10565;SDS011;5331;48.148;16.326;2023-04-08T04:27:44;4.27;;;3.97;;
10565;SDS011;5331;48.148;16.326;2023-04-08T04:30:11;3.93;;;3.63;;
10565;SDS011;5331;48.148;16.326;2023-04-08T04:32:41;4.20;;;3.80;;
10565;SDS011;5331;48.148;16.326;2023-04-08T04:35:09;4.13;;;3.83;;
10565;SDS011;5331;48.148;16.326;2023-04-08T04:37:37;4.10;;;3.80;;
10565;SDS011;5331;48.148;16.326;2023-04-08T04:40:05;4.50;;;4.10;;
10565;SDS011;5331;48.148;16.326;2023-04-08T04:42:33;4.40;;;4.10;;
10565;SDS011;5331;48.148;16.326;2023-04-08T04:45:00;4.90;;;4.37;;
10565;SDS011;5331;48.148;16.326;2023-04-08T04:47:26;4.83;;;4.43;;
10565;SDS011;5331;48.148;16.326;2023-04-08T04:49:56;4.07;;;3.83;;
10565;SDS011;5331;48.148;16.326;2023-04-08T04:52:24;4.00;;;3.70;;
10565;SDS011;5331;48.148;16.326;2023-04-08T04:54:51;4.33;;;4.03;;
10565;SDS011;5331;48.148;16.326;2023-04-08T04:57:18;5.57;;;4.83;;
10565;SDS011;5331;48.148;16.326;2023-04-08T04:59:46;4.63;;;4.33;;
10565;SDS011;5331;48.148;16.326;2023-04-08T05:02:14;5.00;;;4.60;;
10565;SDS011;5331;48.148;16.326;2023-04-08T05:04:41;4.93;;;4.53;;
10565;SDS011;5331;48.148;16.326;2023-04-08T05:07:08;4.70;;;4.30;;
10565;SDS011;5331;48.148;16.326;2023-04-08T05:09:36;4.70;;;4.30;;
10565;SDS011;5331;48.148;16.326;2023-04-08T05:12:04;5.43;;;4.97;;
10565;SDS011;5331;48.148;16.326;2023-04-08T05:14:31;5.00;;;4.60;;
10565;SDS011;5331;48.148;16.326;2023-04-08T05:16:58;4.90;;;4.50;;
10565;SDS011;5331;48.148;16.326;2023-04-08T05:19:26;4.93;;;4.53;;
10565;SDS011;5331;48.148;16.326;2023-04-08T05:21:53;4.93;;;4.53;;
10565;SDS011;5331;48.148;16.326;2023-04-08T05:24:20;5.40;;;4.90;;
10565;SDS011;5331;48.148;16.326;2023-04-08T05:26:48;4.77;;;4.37;;
10565;SDS011;5331;48.148;16.326;2023-04-08T05:29:17;5.33;;;4.83;;
10565;SDS011;5331;48.148;16.326;2023-04-08T05:31:45;4.90;;;4.50;;
10565;SDS011;5331;48.148;16.326;2023-04-08T05:34:12;5.60;;;5.10;;
10565;SDS011;5331;48.148;16.326;2023-04-08T05:36:39;5.37;;;4.97;;
10565;SDS011;5331;48.148;16.326;2023-04-08T05:39:06;5.20;;;4.70;;
10565;SDS011;5331;48.148;16.326;2023-04-08T05:41:34;5.60;;;5.10;;
10565;SDS011;5331;48.148;16.326;2023-04-08T05:44:02;4.77;;;4.37;;
10565;SDS011;5331;48.148;16.326;2023-04-08T05:46:29;4.90;;;4.50;;
10565;SDS011;5331;48.148;16.326;2023-04-08T05:48:57;5.03;;;4.57;;
10565;SDS011;5331;48.148;16.326;2023-04-08T05:51:24;5.03;;;4.53;;
10565;SDS011;5331;48.148;16.326;2023-04-08T05:53:54;5.10;;;4.60;;
10565;SDS011;5331;48.148;16.326;2023-04-08T05:56:23;4.50;;;4.10;;
10565;SDS011;5331;48.148;16.326;2023-04-08T05:58:51;3.80;;;3.50;;
10565;SDS011;5331;48.148;16.326;2023-04-08T06:01:21;4.33;;;4.03;;
10565;SDS011;5331;48.148;16.326;2023-04-08T06:03:49;4.00;;;3.70;;
10565;SDS011;5331;48.148;16.326;2023-04-08T06:06:19;4.13;;;3.80;;
10565;SDS011;5331;48.148;16.326;2023-04-08T06:08:47;4.37;;;3.97;;
10565;SDS011;5331;48.148;16.326;2023-04-08T06:11:14;4.97;;;4.57;;
10565;SDS011;5331;48.148;16.326;2023-04-08T06:13:41;5.80;;;5.30;;
10565;SDS011;5331;48.148;16.326;2023-04-08T06:16:11;5.40;;;4.93;;
10565;SDS011;5331;48.148;16.326;2023-04-08T06:18:41;4.30;;;4.00;;
10565;SDS011;5331;48.148;16.326;2023-04-08T06:21:12;5.47;;;4.97;;
10565;SDS011;5331;48.148;16.326;2023-04-08T06:23:39;5.30;;;4.80;;
10565;SDS011;5331;48.148;16.326;2023-04-08T06:26:06;5.57;;;5.07;;
10565;SDS011;5331;48.148;16.326;2023-04-08T06:28:33;5.53;;;5.03;;
10565;SDS011;5331;48.148;16.326;2023-04-08T06:31:00;9.07;;;8.17;;
10565;SDS011;5331;48.148;16.326;2023-04-08T06:33:26;5.47;;;4.97;;
10565;SDS011;5331;48.148;16.326;2023-04-08T06:36:01;5.80;;;5.10;;
10565;SDS011;5331;48.148;16.326;2023-04-08T06:38:29;6.07;;;5.47;;
10565;SDS011;5331;48.148;16.326;2023-04-08T06:41:00;5.97;;;5.37;;
10565;SDS011;5331;48.148;16.326;2023-04-08T06:43:28;5.50;;;5.00;;
10565;SDS011;5331;48.148;16.326;2023-04-08T06:45:56;5.80;;;5.30;;
10565;SDS011;5331;48.148;16.326;2023-04-08T06:48:23;6.20;;;5.43;;
10565;SDS011;5331;48.148;16.326;2023-04-08T06:50:53;4.70;;;4.30;;
10565;SDS011;5331;48.148;16.326;2023-04-08T06:53:22;5.37;;;4.87;;
10565;SDS011;5331;48.148;16.326;2023-04-08T06:55:49;6.03;;;5.00;;
10565;SDS011;5331;48.148;16.326;2023-04-08T06:58:17;5.80;;;5.23;;
10565;SDS011;5331;48.148;16.326;2023-04-08T07:00:44;6.03;;;5.43;;
10565;SDS011;5331;48.148;16.326;2023-04-08T07:03:11;5.40;;;4.90;;
10565;SDS011;5331;48.148;16.326;2023-04-08T07:05:38;5.20;;;4.70;;
10565;SDS011;5331;48.148;16.326;2023-04-08T07:08:06;5.17;;;4.70;;
10565;SDS011;5331;48.148;16.326;2023-04-08T07:10:34;6.07;;;5.27;;
10565;SDS011;5331;48.148;16.326;2023-04-08T07:13:01;5.67;;;5.17;;
10565;SDS011;5331;48.148;16.326;2023-04-08T07:15:29;4.97;;;4.57;;
10565;SDS011;5331;48.148;16.326;2023-04-08T07:17:56;5.57;;;5.07;;
10565;SDS011;5331;48.148;16.326;2023-04-08T07:20:24;5.87;;;5.27;;
10565;SDS011;5331;48.148;16.326;2023-04-08T07:22:51;6.53;;;5.93;;
10565;SDS011;5331;48.148;16.326;2023-04-08T07:25:18;7.00;;;6.30;;
10565;SDS011;5331;48.148;16.326;2023-04-08T07:27:46;6.77;;;6.07;;
10565;SDS011;5331;48.148;16.326;2023-04-08T07:30:14;7.73;;;6.90;;
10565;SDS011;5331;48.148;16.326;2023-04-08T07:32:41;5.27;;;4.77;;
10565;SDS011;5331;48.148;16.326;2023-04-08T07:35:08;5.07;;;4.60;;
10565;SDS011;5331;48.148;16.326;2023-04-08T07:37:35;6.00;;;5.43;;
10565;SDS011;5331;48.148;16.326;2023-04-08T07:40:01;6.07;;;5.50;;
10565;SDS011;5331;48.148;16.326;2023-04-08T07:42:29;6.13;;;5.53;;
10565;SDS011;5331;48.148;16.326;2023-04-08T07:44:57;5.70;;;5.10;;
10565;SDS011;5331;48.148;16.326;2023-04-08T07:47:24;5.17;;;4.77;;
10565;SDS011;5331;48.148;16.326;2023-04-08T07:49:51;4.80;;;4.40;;
10565;SDS011;5331;48.148;16.326;2023-04-08T07:52:18;5.90;;;5.40;;
10565;SDS011;5331;48.148;16.326;2023-04-08T07:54:46;4.80;;;4.40;;
10565;SDS011;5331;48.148;16.326;2023-04-08T07:57:13;5.00;;;4.57;;
10565;SDS011;5331;48.148;16.326;2023-04-08T07:59:40;5.40;;;4.90;;
10565;SDS011;5331;48.148;16.326;2023-04-08T08:02:08;5.63;;;5.20;;
10565;SDS011;5331;48.148;16.326;2023-04-08T08:04:35;5.20;;;4.80;;
10565;SDS011;5331;48.148;16.326;2023-04-08T08:07:02;5.13;;;4.63;;
10565;SDS011;5331;48.148;16.326;2023-04-08T08:09:29;5.50;;;4.83;;
10565;SDS011;5331;48.148;16.326;2023-04-08T08:11:56;5.27;;;4.47;;
10565;SDS011;5331;48.148;16.326;2023-04-08T08:14:27;9.50;;;8.40;;
10565;SDS011;5331;48.148;16.326;2023-04-08T08:16:54;5.47;;;4.93;;
10565;SDS011;5331;48.148;16.326;2023-04-08T08:19:22;5.37;;;4.87;;
10565;SDS011;5331;48.148;16.326;2023-04-08T08:21:49;6.07;;;5.47;;
10565;SDS011;5331;48.148;16.326;2023-04-08T08:24:16;6.13;;;5.53;;
10565;SDS011;5331;48.148;16.326;2023-04-08T08:26:50;6.30;;;5.70;;
10565;SDS011;5331;48.148;16.326;2023-04-08T08:29:18;5.83;;;5.33;;
10565;SDS011;5331;48.148;16.326;2023-04-08T08:31:45;6.20;;;5.60;;
10565;SDS011;5331;48.148;16.326;2023-04-08T08:34:12;7.30;;;6.50;;
10565;SDS011;5331;48.148;16.326;2023-04-08T08:36:41;6.60;;;6.00;;
10565;SDS011;5331;48.148;16.326;2023-04-08T08:39:08;7.87;;;6.70;;
10565;SDS011;5331;48.148;16.326;2023-04-08T08:41:35;7.00;;;6.30;;
10565;SDS011;5331;48.148;16.326;2023-04-08T08:44:04;7.87;;;7.07;;
10565;SDS011;5331;48.148;16.326;2023-04-08T08:46:31;9.67;;;6.83;;
10565;SDS011;5331;48.148;16.326;2023-04-08T08:48:58;7.47;;;6.67;;
10565;SDS011;5331;48.148;16.326;2023-04-08T08:51:26;8.60;;;7.00;;
10565;SDS011;5331;48.148;16.326;2023-04-08T08:54:02;7.53;;;6.73;;
10565;SDS011;5331;48.148;16.326;2023-04-08T08:56:31;8.67;;;7.10;;
10565;SDS011;5331;48.148;16.326;2023-04-08T08:59:00;8.53;;;7.03;;
10565;SDS011;5331;48.148;16.326;2023-04-08T09:01:30;7.07;;;6.37;;
10565;SDS011;5331;48.148;16.326;2023-04-08T09:04:08;7.93;;;6.37;;
10565;SDS011;5331;48.148;16.326;2023-04-08T09:06:38;8.00;;;7.07;;
10565;SDS011;5331;48.148;16.326;2023-04-08T09:09:06;9.20;;;7.20;;
10565;SDS011;5331;48.148;16.326;2023-04-08T09:11:35;7.27;;;6.57;;
10565;SDS011;5331;48.148;16.326;2023-04-08T09:14:03;9.10;;;6.80;;
10565;SDS011;5331;48.148;16.326;2023-04-08T09:16:31;9.07;;;7.00;;
10565;SDS011;5331;48.148;16.326;2023-04-08T09:19:09;7.83;;;6.73;;
10565;SDS011;5331;48.148;16.326;2023-04-08T09:21:37;9.17;;;7.37;;
10565;SDS011;5331;48.148;16.326;2023-04-08T09:24:07;8.03;;;7.07;;
10565;SDS011;5331;48.148;16.326;2023-04-08T09:26:35;10.33;;;8.23;;
10565;SDS011;5331;48.148;16.326;2023-04-08T09:29:03;9.43;;;7.77;;
10565;SDS011;5331;48.148;16.326;2023-04-08T09:31:31;9.97;;;7.53;;
10565;SDS011;5331;48.148;16.326;2023-04-08T09:34:08;8.27;;;6.80;;
10565;SDS011;5331;48.148;16.326;2023-04-08T09:36:35;9.63;;;7.43;;
10565;SDS011;5331;48.148;16.326;2023-04-08T09:39:03;9.23;;;7.90;;
10565;SDS011;5331;48.148;16.326;2023-04-08T09:41:33;9.43;;;8.23;;
10565;SDS011;5331;48.148;16.326;2023-04-08T09:44:02;9.37;;;7.47;;
10565;SDS011;5331;48.148;16.326;2023-04-08T09:46:31;10.87;;;8.60;;
10565;SDS011;5331;48.148;16.326;2023-04-08T09:49:05;11.03;;;8.33;;
10565;SDS011;5331;48.148;16.326;2023-04-08T09:51:39;11.60;;;8.87;;
10565;SDS011;5331;48.148;16.326;2023-04-08T09:54:14;10.50;;;8.70;;
10565;SDS011;5331;48.148;16.326;2023-04-08T09:56:50;10.87;;;8.87;;
10565;SDS011;5331;48.148;16.326;2023-04-08T09:59:29;11.60;;;9.53;;
10565;SDS011;5331;48.148;16.326;2023-04-08T10:02:02;11.40;;;8.93;;
10565;SDS011;5331;48.148;16.326;2023-04-08T10:04:35;11.50;;;9.00;;
10565;SDS011;5331;48.148;16.326;2023-04-08T10:07:07;11.90;;;9.00;;
10565;SDS011;5331;48.148;16.326;2023-04-08T10:09:34;13.10;;;10.23;;
10565;SDS011;5331;48.148;16.326;2023-04-08T10:12:04;12.00;;;8.93;;
10565;SDS011;5331;48.148;16.326;2023-04-08T10:14:31;10.43;;;8.40;;
10565;SDS011;5331;48.148;16.326;2023-04-08T10:19:51;10.83;;;8.97;;
10565;SDS011;5331;48.148;16.326;2023-04-08T10:25:28;12.13;;;9.30;;
10565;SDS011;5331;48.148;16.326;2023-04-08T10:27:58;10.90;;;8.70;;
10565;SDS011;5331;48.148;16.326;2023-04-08T10:30:38;10.23;;;8.03;;
10565;SDS011;5331;48.148;16.326;2023-04-08T10:33:08;10.13;;;8.17;;
10565;SDS011;5331;48.148;16.326;2023-04-08T10:35:37;9.53;;;7.87;;
10565;SDS011;5331;48.148;16.326;2023-04-08T10:38:07;9.33;;;7.70;;
10565;SDS011;5331;48.148;16.326;2023-04-08T10:40:36;12.23;;;8.07;;
10565;SDS011;5331;48.148;16.326;2023-04-08T10:43:06;10.40;;;8.40;;
10565;SDS011;5331;48.148;16.326;2023-04-08T10:45:34;9.87;;;7.87;;
10565;SDS011;5331;48.148;16.326;2023-04-08T10:48:14;8.30;;;7.23;;
10565;SDS011;5331;48.148;16.326;2023-04-08T10:50:43;9.70;;;7.90;;
10565;SDS011;5331;48.148;16.326;2023-04-08T10:53:10;8.97;;;7.63;;
10565;SDS011;5331;48.148;16.326;2023-04-08T10:55:37;11.00;;;7.93;;
10565;SDS011;5331;48.148;16.326;2023-04-08T10:58:05;10.37;;;7.87;;
10565;SDS011;5331;48.148;16.326;2023-04-08T11:00:34;11.10;;;7.57;;
10565;SDS011;5331;48.148;16.326;2023-04-08T11:03:02;9.93;;;7.97;;
10565;SDS011;5331;48.148;16.326;2023-04-08T11:05:30;9.17;;;7.37;;
10565;SDS011;5331;48.148;16.326;2023-04-08T11:07:58;10.43;;;7.60;;
10565;SDS011;5331;48.148;16.326;2023-04-08T11:10:25;11.90;;;8.33;;
10565;SDS011;5331;48.148;16.326;2023-04-08T11:12:53;12.53;;;8.63;;
10565;SDS011;5331;48.148;16.326;2023-04-08T11:15:22;14.17;;;9.07;;
10565;SDS011;5331;48.148;16.326;2023-04-08T11:17:50;15.30;;;9.40;;
10565;SDS011;5331;48.148;16.326;2023-04-08T11:20:18;16.10;;;9.43;;
10565;SDS011;5331;48.148;16.326;2023-04-08T11:22:46;15.10;;;10.60;;
10565;SDS011;5331;48.148;16.326;2023-04-08T11:25:13;12.90;;;9.40;;
10565;SDS011;5331;48.148;16.326;2023-04-08T11:27:40;13.73;;;9.57;;
10565;SDS011;5331;48.148;16.326;2023-04-08T11:30:07;15.63;;;10.37;;
10565;SDS011;5331;48.148;16.326;2023-04-08T11:32:37;17.87;;;11.17;;
10565;SDS011;5331;48.148;16.326;2023-04-08T11:35:05;14.83;;;10.37;;
10565;SDS011;5331;48.148;16.326;2023-04-08T11:37:36;14.80;;;10.17;;
10565;SDS011;5331;48.148;16.326;2023-04-08T11:40:07;15.57;;;10.30;;
10565;SDS011;5331;48.148;16.326;2023-04-08T11:42:35;16.30;;;10.40;;
10565;SDS011;5331;48.148;16.326;2023-04-08T11:45:09;17.63;;;11.03;;
10565;SDS011;5331;48.148;16.326;2023-04-08T11:47:38;15.57;;;11.07;;
10565;SDS011;5331;48.148;16.326;2023-04-08T11:50:08;18.60;;;11.60;;
10565;SDS011;5331;48.148;16.326;2023-04-08T11:52:40;17.60;;;11.83;;
10565;SDS011;5331;48.148;16.326;2023-04-08T11:55:09;18.83;;;12.10;;
10565;SDS011;5331;48.148;16.326;2023-04-08T11:57:36;16.93;;;11.30;;
10565;SDS011;5331;48.148;16.326;2023-04-08T12:00:04;16.53;;;11.70;;
10565;SDS011;5331;48.148;16.326;2023-04-08T12:02:33;18.83;;;11.83;;
10565;SDS011;5331;48.148;16.326;2023-04-08T12:05:02;14.60;;;10.20;;
10565;SDS011;5331;48.148;16.326;2023-04-08T12:07:30;16.90;;;11.13;;
10565;SDS011;5331;48.148;16.326;2023-04-08T12:09:57;15.73;;;11.50;;
10565;SDS011;5331;48.148;16.326;2023-04-08T12:12:25;14.93;;;10.43;;
10565;SDS011;5331;48.148;16.326;2023-04-08T12:14:52;16.80;;;11.23;;
10565;SDS011;5331;48.148;16.326;2023-04-08T12:17:19;15.67;;;10.10;;
10565;SDS011;5331;48.148;16.326;2023-04-08T12:19:47;15.37;;;10.50;;
10565;SDS011;5331;48.148;16.326;2023-04-08T12:22:16;14.40;;;9.77;;
10565;SDS011;5331;48.148;16.326;2023-04-08T12:24:43;14.20;;;9.83;;
10565;SDS011;5331;48.148;16.326;2023-04-08T12:27:10;15.07;;;9.90;;
10565;SDS011;5331;48.148;16.326;2023-04-08T12:29:38;15.07;;;10.17;;
10565;SDS011;5331;48.148;16.326;2023-04-08T12:32:05;14.13;;;9.97;;
10565;SDS011;5331;48.148;16.326;2023-04-08T12:34:32;12.13;;;9.47;;
10565;SDS011;5331;48.148;16.326;2023-04-08T12:36:59;13.70;;;9.40;;
10565;SDS011;5331;48.148;16.326;2023-04-08T12:39:30;14.87;;;9.83;;
10565;SDS011;5331;48.148;16.326;2023-04-08T12:41:57;12.10;;;10.17;;
10565;SDS011;5331;48.148;16.326;2023-04-08T12:44:24;15.33;;;10.43;;
10565;SDS011;5331;48.148;16.326;2023-04-08T12:46:52;14.47;;;10.40;;
10565;SDS011;5331;48.148;16.326;2023-04-08T12:49:20;14.47;;;10.10;;
10565;SDS011;5331;48.148;16.326;2023-04-08T12:51:47;12.70;;;9.53;;
10565;SDS011;5331;48.148;16.326;2023-04-08T12:54:14;12.50;;;9.17;;
10565;SDS011;5331;48.148;16.326;2023-04-08T12:56:43;16.17;;;10.10;;
10565;SDS011;5331;48.148;16.326;2023-04-08T12:59:10;13.70;;;9.23;;
10565;SDS011;5331;48.148;16.326;2023-04-08T13:01:37;13.63;;;9.50;;
10565;SDS011;5331;48.148;16.326;2023-04-08T13:04:04;13.37;;;9.80;;
10565;SDS011;5331;48.148;16.326;2023-04-08T13:06:31;13.57;;;10.17;;
10565;SDS011;5331;48.148;16.326;2023-04-08T13:08:58;13.57;;;9.80;;
10565;SDS011;5331;48.148;16.326;2023-04-08T13:11:25;13.07;;;9.93;;
10565;SDS011;5331;48.148;16.326;2023-04-08T13:13:53;12.90;;;9.67;;
10565;SDS011;5331;48.148;16.326;2023-04-08T13:16:21;14.63;;;10.27;;
10565;SDS011;5331;48.148;16.326;2023-04-08T13:18:48;15.00;;;10.27;;
10565;SDS011;5331;48.148;16.326;2023-04-08T13:21:16;13.00;;;9.97;;
10565;SDS011;5331;48.148;16.326;2023-04-08T13:23:43;14.93;;;10.87;;
10565;SDS011;5331;48.148;16.326;2023-04-08T13:26:10;15.93;;;10.60;;
10565;SDS011;5331;48.148;16.326;2023-04-08T13:28:37;12.47;;;9.63;;
10565;SDS011;5331;48.148;16.326;2023-04-08T13:31:06;12.30;;;9.40;;
10565;SDS011;5331;48.148;16.326;2023-04-08T13:33:33;12.73;;;9.67;;
10565;SDS011;5331;48.148;16.326;2023-04-08T13:36:00;11.63;;;9.17;;
10565;SDS011;5331;48.148;16.326;2023-04-08T13:38:28;11.63;;;8.87;;
10565;SDS011;5331;48.148;16.326;2023-04-08T13:40:56;12.00;;;9.20;;
10565;SDS011;5331;48.148;16.326;2023-04-08T13:43:23;8.97;;;7.90;;
10565;SDS011;5331;48.148;16.326;2023-04-08T13:45:50;8.83;;;7.80;;
10565;SDS011;5331;48.148;16.326;2023-04-08T13:48:18;8.90;;;8.00;;
10565;SDS011;5331;48.148;16.326;2023-04-08T13:50:46;9.10;;;7.50;;
10565;SDS011;5331;48.148;16.326;2023-04-08T13:53:13;9.63;;;8.03;;
10565;SDS011;5331;48.148;16.326;2023-04-08T13:55:40;9.43;;;7.80;;
10565;SDS011;5331;48.148;16.326;2023-04-08T13:58:07;8.67;;;7.77;;
10565;SDS011;5331;48.148;16.326;2023-04-08T14:00:34;8.20;;;7.33;;
10565;SDS011;5331;48.148;16.326;2023-04-08T14:03:01;9.30;;;8.30;;
10565;SDS011;5331;48.148;16.326;2023-04-08T14:05:29;10.33;;;8.77;;
10565;SDS011;5331;48.148;16.326;2023-04-08T14:07:56;10.83;;;9.03;;
10565;SDS011;5331;48.148;16.326;2023-04-08T14:10:23;8.93;;;8.03;;
10565;SDS011;5331;48.148;16.326;2023-04-08T14:12:51;9.60;;;8.40;;
10565;SDS011;5331;48.148;16.326;2023-04-08T14:15:18;9.83;;;8.07;;
10565;SDS011;5331;48.148;16.326;2023-04-08T14:17:45;10.00;;;8.23;;
10565;SDS011;5331;48.148;16.326;2023-04-08T14:20:13;11.13;;;9.17;;
10565;SDS011;5331;48.148;16.326;2023-04-08T14:22:43;10.50;;;8.90;;
10565;SDS011;5331;48.148;16.326;2023-04-08T14:25:15;11.07;;;9.53;;
10565;SDS011;5331;48.148;16.326;2023-04-08T14:27:45;12.90;;;10.63;;
10565;SDS011;5331;48.148;16.326;2023-04-08T14:30:12;11.10;;;9.67;;
10565;SDS011;5331;48.148;16.326;2023-04-08T14:32:40;13.27;;;10.10;;
10565;SDS011;5331;48.148;16.326;2023-04-08T14:35:07;10.30;;;9.10;;
10565;SDS011;5331;48.148;16.326;2023-04-08T14:37:34;9.07;;;8.17;;
10565;SDS011;5331;48.148;16.326;2023-04-08T14:40:04;10.60;;;8.87;;
10565;SDS011;5331;48.148;16.326;2023-04-08T14:42:32;9.70;;;8.10;;
10565;SDS011;5331;48.148;16.326;2023-04-08T14:44:59;9.07;;;8.17;;
10565;SDS011;5331;48.148;16.326;2023-04-08T14:47:27;9.80;;;8.70;;
10565;SDS011;5331;48.148;16.326;2023-04-08T14:49:59;9.40;;;8.40;;
10565;SDS011;5331;48.148;16.326;2023-04-08T14:52:26;11.43;;;10.17;;